sensor_id;sensor_type;location;lat;lon;timestamp;temperature;humidity
17483;DHT22;8858;52.308;20.994;2022-12-18T00:00:22;-3.50;99.90
17483;DHT22;8858;52.308;20.994;2022-12-18T00:02:55;-3.40;99.90
17483;DHT22;8858;52.308;20.994;2022-12-18T00:05:24;-3.50;99.90
17483;DHT22;8858;52.308;20.994;2022-12-18T00:07:52;-3.50;99.90
17483;DHT22;8858;52.308;20.994;2022-12-18T00:10:20;-3.40;99.90
17483;DHT22;8858;52.308;20.994;2022-12-18T00:12:49;-3.40;99.90
17483;DHT22;8858;52.308;20.994;2022-12-18T00:15:18;-3.40;99.90
17483;DHT22;8858;52.308;20.994;2022-12-18T00:17:47;-3.30;99.90
17483;DHT22;8858;52.308;20.994;2022-12-18T00:20:17;-3.30;99.90
17483;DHT22;8858;52.308;20.994;2022-12-18T00:22:56;-3.30;99.90
17483;DHT22;8858;52.308;20.994;2022-12-18T00:25:24;-3.30;99.90
17483;DHT22;8858;52.308;20.994;2022-12-18T00:27:52;-3.30;99.90
17483;DHT22;8858;52.308;20.994;2022-12-18T00:30:20;-3.40;99.90
17483;DHT22;8858;52.308;20.994;2022-12-18T00:32:52;-3.40;99.90
17483;DHT22;8858;52.308;20.994;2022-12-18T00:35:22;-3.40;99.90
17483;DHT22;8858;52.308;20.994;2022-12-18T00:37:52;-3.40;99.90
17483;DHT22;8858;52.308;20.994;2022-12-18T00:40:23;-3.30;99.90
17483;DHT22;8858;52.308;20.994;2022-12-18T00:42:53;-3.40;99.90
17483;DHT22;8858;52.308;20.994;2022-12-18T00:45:22;-3.30;99.90
17483;DHT22;8858;52.308;20.994;2022-12-18T00:47:55;-3.30;99.90
17483;DHT22;8858;52.308;20.994;2022-12-18T00:50:26;-3.20;99.90
17483;DHT22;8858;52.308;20.994;2022-12-18T00:52:55;-3.20;99.90
17483;DHT22;8858;52.308;20.994;2022-12-18T00:55:23;-3.30;99.90
17483;DHT22;8858;52.308;20.994;2022-12-18T00:57:51;-3.20;99.90
17483;DHT22;8858;52.308;20.994;2022-12-18T01:00:23;-3.20;99.90
17483;DHT22;8858;52.308;20.994;2022-12-18T01:02:52;-3.10;99.90
17483;DHT22;8858;52.308;20.994;2022-12-18T01:05:20;-3.10;99.90
17483;DHT22;8858;52.308;20.994;2022-12-18T01:07:52;-3.10;99.90
17483;DHT22;8858;52.308;20.994;2022-12-18T01:10:20;-3.10;99.90
17483;DHT22;8858;52.308;20.994;2022-12-18T01:12:56;-3.10;99.90
17483;DHT22;8858;52.308;20.994;2022-12-18T01:15:29;-3.10;99.90
17483;DHT22;8858;52.308;20.994;2022-12-18T01:17:57;-3.10;99.90
17483;DHT22;8858;52.308;20.994;2022-12-18T01:20:26;-3.20;99.90
17483;DHT22;8858;52.308;20.994;2022-12-18T01:22:56;-3.20;99.90
17483;DHT22;8858;52.308;20.994;2022-12-18T01:25:26;-3.20;99.90
17483;DHT22;8858;52.308;20.994;2022-12-18T01:27:56;-3.20;99.90
17483;DHT22;8858;52.308;20.994;2022-12-18T01:30:28;-3.20;99.90
17483;DHT22;8858;52.308;20.994;2022-12-18T01:32:56;-3.20;99.90
17483;DHT22;8858;52.308;20.994;2022-12-18T01:35:25;-3.10;99.90
17483;DHT22;8858;52.308;20.994;2022-12-18T01:37:56;-3.10;99.90
17483;DHT22;8858;52.308;20.994;2022-12-18T01:40:27;-3.10;99.90
17483;DHT22;8858;52.308;20.994;2022-12-18T01:42:55;-3.10;99.90
17483;DHT22;8858;52.308;20.994;2022-12-18T01:45:26;-3.10;99.90
17483;DHT22;8858;52.308;20.994;2022-12-18T01:47:56;-3.10;99.90
17483;DHT22;8858;52.308;20.994;2022-12-18T01:50:31;-3.10;99.90
17483;DHT22;8858;52.308;20.994;2022-12-18T01:53:05;-3.00;99.90
17483;DHT22;8858;52.308;20.994;2022-12-18T01:55:37;-3.00;99.90
17483;DHT22;8858;52.308;20.994;2022-12-18T01:58:09;-3.00;99.90
17483;DHT22;8858;52.308;20.994;2022-12-18T02:00:38;-3.00;99.90
17483;DHT22;8858;52.308;20.994;2022-12-18T02:03:07;-3.00;99.90
17483;DHT22;8858;52.308;20.994;2022-12-18T02:05:44;-3.00;99.90
17483;DHT22;8858;52.308;20.994;2022-12-18T02:08:21;-3.10;99.90
17483;DHT22;8858;52.308;20.994;2022-12-18T02:10:57;-3.00;99.90
17483;DHT22;8858;52.308;20.994;2022-12-18T02:13:38;-3.10;99.90
17483;DHT22;8858;52.308;20.994;2022-12-18T02:16:14;-3.10;99.90
17483;DHT22;8858;52.308;20.994;2022-12-18T02:18:47;-3.10;99.90
17483;DHT22;8858;52.308;20.994;2022-12-18T02:21:25;-3.10;99.90
17483;DHT22;8858;52.308;20.994;2022-12-18T02:24:12;-3.20;99.90
17483;DHT22;8858;52.308;20.994;2022-12-18T02:26:49;-3.20;99.90
17483;DHT22;8858;52.308;20.994;2022-12-18T02:29:23;-3.30;99.90
17483;DHT22;8858;52.308;20.994;2022-12-18T02:31:56;-3.30;99.90
17483;DHT22;8858;52.308;20.994;2022-12-18T02:34:28;-3.30;99.90
17483;DHT22;8858;52.308;20.994;2022-12-18T02:36:59;-3.30;99.90
17483;DHT22;8858;52.308;20.994;2022-12-18T02:39:30;-3.30;99.90
17483;DHT22;8858;52.308;20.994;2022-12-18T02:42:05;-3.30;99.90
17483;DHT22;8858;52.308;20.994;2022-12-18T02:44:42;-3.30;99.90
17483;DHT22;8858;52.308;20.994;2022-12-18T02:47:12;-3.30;99.90
17483;DHT22;8858;52.308;20.994;2022-12-18T02:49:48;-3.30;99.90
17483;DHT22;8858;52.308;20.994;2022-12-18T02:52:25;-3.30;99.90
17483;DHT22;8858;52.308;20.994;2022-12-18T02:55:09;-3.30;99.90
17483;DHT22;8858;52.308;20.994;2022-12-18T02:57:46;-3.30;99.90
17483;DHT22;8858;52.308;20.994;2022-12-18T03:00:28;-3.30;99.90
17483;DHT22;8858;52.308;20.994;2022-12-18T03:03:02;-3.30;99.90
17483;DHT22;8858;52.308;20.994;2022-12-18T03:05:36;-3.30;99.90
17483;DHT22;8858;52.308;20.994;2022-12-18T03:08:08;-3.40;99.90
17483;DHT22;8858;52.308;20.994;2022-12-18T03:10:45;-3.40;99.90
17483;DHT22;8858;52.308;20.994;2022-12-18T03:13:20;-3.40;99.90
17483;DHT22;8858;52.308;20.994;2022-12-18T03:15:54;-3.30;99.90
17483;DHT22;8858;52.308;20.994;2022-12-18T03:18:25;-3.40;99.90
17483;DHT22;8858;52.308;20.994;2022-12-18T03:21:02;-3.30;99.90
17483;DHT22;8858;52.308;20.994;2022-12-18T03:23:36;-3.30;99.90
17483;DHT22;8858;52.308;20.994;2022-12-18T03:26:11;-3.40;99.90
17483;DHT22;8858;52.308;20.994;2022-12-18T03:28:46;-3.40;99.90
17483;DHT22;8858;52.308;20.994;2022-12-18T03:31:19;-3.40;99.90
17483;DHT22;8858;52.308;20.994;2022-12-18T03:33:52;-3.40;99.90
17483;DHT22;8858;52.308;20.994;2022-12-18T03:36:26;-3.40;99.90
17483;DHT22;8858;52.308;20.994;2022-12-18T03:38:55;-3.40;99.90
17483;DHT22;8858;52.308;20.994;2022-12-18T03:41:32;-3.40;99.90
17483;DHT22;8858;52.308;20.994;2022-12-18T03:44:27;-3.40;99.90
17483;DHT22;8858;52.308;20.994;2022-12-18T03:47:03;-3.40;99.90
17483;DHT22;8858;52.308;20.994;2022-12-18T03:49:36;-3.40;99.90
17483;DHT22;8858;52.308;20.994;2022-12-18T03:52:12;-3.30;99.90
17483;DHT22;8858;52.308;20.994;2022-12-18T03:54:42;-3.40;99.90
17483;DHT22;8858;52.308;20.994;2022-12-18T03:57:16;-3.40;99.90
17483;DHT22;8858;52.308;20.994;2022-12-18T03:59:54;-3.30;99.90
17483;DHT22;8858;52.308;20.994;2022-12-18T04:02:27;-3.30;99.90
17483;DHT22;8858;52.308;20.994;2022-12-18T04:05:03;-3.30;99.90
17483;DHT22;8858;52.308;20.994;2022-12-18T04:07:35;-3.30;99.90
17483;DHT22;8858;52.308;20.994;2022-12-18T04:10:09;-3.30;99.90
17483;DHT22;8858;52.308;20.994;2022-12-18T04:12:40;-3.30;99.90
17483;DHT22;8858;52.308;20.994;2022-12-18T04:15:12;-3.40;99.90
17483;DHT22;8858;52.308;20.994;2022-12-18T04:17:47;-3.40;99.90
17483;DHT22;8858;52.308;20.994;2022-12-18T04:20:22;-3.40;99.90
17483;DHT22;8858;52.308;20.994;2022-12-18T04:22:50;-3.40;99.90
17483;DHT22;8858;52.308;20.994;2022-12-18T04:25:19;-3.40;99.90
17483;DHT22;8858;52.308;20.994;2022-12-18T04:28:03;-3.40;99.90
17483;DHT22;8858;52.308;20.994;2022-12-18T04:30:35;-3.50;99.90
17483;DHT22;8858;52.308;20.994;2022-12-18T04:33:08;-3.50;99.90
17483;DHT22;8858;52.308;20.994;2022-12-18T04:35:40;-3.60;99.90
17483;DHT22;8858;52.308;20.994;2022-12-18T04:38:13;-3.60;99.90
17483;DHT22;8858;52.308;20.994;2022-12-18T04:40:44;-3.60;99.90
17483;DHT22;8858;52.308;20.994;2022-12-18T04:43:24;-3.60;99.90
17483;DHT22;8858;52.308;20.994;2022-12-18T04:46:02;-3.60;99.90
17483;DHT22;8858;52.308;20.994;2022-12-18T04:48:31;-3.60;99.90
17483;DHT22;8858;52.308;20.994;2022-12-18T04:51:04;-3.60;99.90
17483;DHT22;8858;52.308;20.994;2022-12-18T04:53:36;-3.70;99.90
17483;DHT22;8858;52.308;20.994;2022-12-18T04:56:07;-3.70;99.90
17483;DHT22;8858;52.308;20.994;2022-12-18T04:58:35;-3.60;99.90
17483;DHT22;8858;52.308;20.994;2022-12-18T05:01:06;-3.60;99.90
17483;DHT22;8858;52.308;20.994;2022-12-18T05:03:36;-3.60;99.90
17483;DHT22;8858;52.308;20.994;2022-12-18T05:06:07;-3.60;99.90
17483;DHT22;8858;52.308;20.994;2022-12-18T05:08:36;-3.60;99.90
17483;DHT22;8858;52.308;20.994;2022-12-18T05:11:06;-3.60;99.90
17483;DHT22;8858;52.308;20.994;2022-12-18T05:13:37;-3.60;99.90
17483;DHT22;8858;52.308;20.994;2022-12-18T05:16:08;-3.60;99.90
17483;DHT22;8858;52.308;20.994;2022-12-18T05:18:36;-3.70;99.90
17483;DHT22;8858;52.308;20.994;2022-12-18T05:21:09;-3.70;99.90
17483;DHT22;8858;52.308;20.994;2022-12-18T05:23:40;-3.70;99.90
17483;DHT22;8858;52.308;20.994;2022-12-18T05:26:15;-3.80;99.90
17483;DHT22;8858;52.308;20.994;2022-12-18T05:28:47;-3.70;99.90
17483;DHT22;8858;52.308;20.994;2022-12-18T05:31:17;-3.70;99.90
17483;DHT22;8858;52.308;20.994;2022-12-18T05:33:45;-3.80;99.90
17483;DHT22;8858;52.308;20.994;2022-12-18T05:36:13;-3.80;99.90
17483;DHT22;8858;52.308;20.994;2022-12-18T05:38:46;-3.80;99.90
17483;DHT22;8858;52.308;20.994;2022-12-18T05:41:17;-3.90;99.90
17483;DHT22;8858;52.308;20.994;2022-12-18T05:43:45;-3.80;99.90
17483;DHT22;8858;52.308;20.994;2022-12-18T05:46:15;-3.90;99.90
17483;DHT22;8858;52.308;20.994;2022-12-18T05:48:45;-3.80;99.90
17483;DHT22;8858;52.308;20.994;2022-12-18T05:51:18;-3.80;99.90
17483;DHT22;8858;52.308;20.994;2022-12-18T05:53:47;-3.80;99.90
17483;DHT22;8858;52.308;20.994;2022-12-18T05:56:20;-3.80;99.90
17483;DHT22;8858;52.308;20.994;2022-12-18T05:58:52;-3.90;99.90
17483;DHT22;8858;52.308;20.994;2022-12-18T06:01:22;-3.90;99.90
17483;DHT22;8858;52.308;20.994;2022-12-18T06:03:53;-3.80;99.90
17483;DHT22;8858;52.308;20.994;2022-12-18T06:06:23;-3.90;99.90
17483;DHT22;8858;52.308;20.994;2022-12-18T06:08:52;-3.90;99.90
17483;DHT22;8858;52.308;20.994;2022-12-18T06:11:23;-3.90;99.90
17483;DHT22;8858;52.308;20.994;2022-12-18T06:13:51;-3.90;99.90
17483;DHT22;8858;52.308;20.994;2022-12-18T06:16:28;-3.80;99.90
17483;DHT22;8858;52.308;20.994;2022-12-18T06:18:59;-3.80;99.90
17483;DHT22;8858;52.308;20.994;2022-12-18T06:21:28;-3.90;99.90
17483;DHT22;8858;52.308;20.994;2022-12-18T06:23:57;-3.90;99.90
17483;DHT22;8858;52.308;20.994;2022-12-18T06:26:26;-3.90;99.90
17483;DHT22;8858;52.308;20.994;2022-12-18T06:28:56;-4.00;99.90
17483;DHT22;8858;52.308;20.994;2022-12-18T06:31:25;-4.00;99.90
17483;DHT22;8858;52.308;20.994;2022-12-18T06:33:54;-4.10;99.90
17483;DHT22;8858;52.308;20.994;2022-12-18T06:36:25;-4.10;99.90
17483;DHT22;8858;52.308;20.994;2022-12-18T06:38:59;-4.10;99.90
17483;DHT22;8858;52.308;20.994;2022-12-18T06:41:27;-4.10;99.90
17483;DHT22;8858;52.308;20.994;2022-12-18T06:43:55;-4.10;99.90
17483;DHT22;8858;52.308;20.994;2022-12-18T06:46:26;-4.10;99.90
17483;DHT22;8858;52.308;20.994;2022-12-18T06:48:54;-4.00;99.90
17483;DHT22;8858;52.308;20.994;2022-12-18T06:51:25;-4.00;99.90
17483;DHT22;8858;52.308;20.994;2022-12-18T06:53:54;-3.90;99.90
17483;DHT22;8858;52.308;20.994;2022-12-18T06:56:23;-3.90;99.90
17483;DHT22;8858;52.308;20.994;2022-12-18T06:58:51;-3.90;99.90
17483;DHT22;8858;52.308;20.994;2022-12-18T07:01:21;-3.90;99.90
17483;DHT22;8858;52.308;20.994;2022-12-18T07:03:52;-3.90;99.90
17483;DHT22;8858;52.308;20.994;2022-12-18T07:06:25;-3.90;99.90
17483;DHT22;8858;52.308;20.994;2022-12-18T07:08:57;-3.90;99.90
17483;DHT22;8858;52.308;20.994;2022-12-18T07:11:25;-3.90;99.90
17483;DHT22;8858;52.308;20.994;2022-12-18T07:13:53;-3.90;99.90
17483;DHT22;8858;52.308;20.994;2022-12-18T07:16:22;-3.90;99.90
17483;DHT22;8858;52.308;20.994;2022-12-18T07:18:52;-3.80;99.90
17483;DHT22;8858;52.308;20.994;2022-12-18T07:21:26;-3.80;99.90
17483;DHT22;8858;52.308;20.994;2022-12-18T07:23:57;-3.70;99.90
17483;DHT22;8858;52.308;20.994;2022-12-18T07:26:25;-3.60;99.90
17483;DHT22;8858;52.308;20.994;2022-12-18T07:28:56;-3.60;99.90
17483;DHT22;8858;52.308;20.994;2022-12-18T07:31:26;-3.60;99.90
17483;DHT22;8858;52.308;20.994;2022-12-18T07:33:55;-3.60;99.90
17483;DHT22;8858;52.308;20.994;2022-12-18T07:36:27;-3.60;99.90
17483;DHT22;8858;52.308;20.994;2022-12-18T07:38:55;-3.70;99.90
17483;DHT22;8858;52.308;20.994;2022-12-18T07:41:23;-3.70;99.90
17483;DHT22;8858;52.308;20.994;2022-12-18T07:43:51;-3.80;99.90
17483;DHT22;8858;52.308;20.994;2022-12-18T07:46:22;-3.90;99.90
17483;DHT22;8858;52.308;20.994;2022-12-18T07:48:51;-3.90;99.90
17483;DHT22;8858;52.308;20.994;2022-12-18T07:51:19;-3.90;99.90
17483;DHT22;8858;52.308;20.994;2022-12-18T07:53:48;-3.90;99.90
17483;DHT22;8858;52.308;20.994;2022-12-18T07:56:19;-3.80;99.90
17483;DHT22;8858;52.308;20.994;2022-12-18T07:58:54;-3.80;99.90
17483;DHT22;8858;52.308;20.994;2022-12-18T08:01:23;-3.70;99.90
17483;DHT22;8858;52.308;20.994;2022-12-18T08:03:51;-3.70;99.90
17483;DHT22;8858;52.308;20.994;2022-12-18T08:06:19;-3.70;99.90
17483;DHT22;8858;52.308;20.994;2022-12-18T08:08:52;-3.70;99.90
17483;DHT22;8858;52.308;20.994;2022-12-18T08:11:21;-3.60;99.90
17483;DHT22;8858;52.308;20.994;2022-12-18T08:13:51;-3.60;99.90
17483;DHT22;8858;52.308;20.994;2022-12-18T08:16:20;-3.50;99.90
17483;DHT22;8858;52.308;20.994;2022-12-18T08:18:51;-3.50;99.90
17483;DHT22;8858;52.308;20.994;2022-12-18T08:21:20;-3.50;99.90
17483;DHT22;8858;52.308;20.994;2022-12-18T08:23:53;-3.50;99.90
17483;DHT22;8858;52.308;20.994;2022-12-18T08:26:22;-3.50;99.90
17483;DHT22;8858;52.308;20.994;2022-12-18T08:28:53;-3.70;99.90
17483;DHT22;8858;52.308;20.994;2022-12-18T08:31:26;-3.70;99.90
17483;DHT22;8858;52.308;20.994;2022-12-18T08:33:55;-3.60;99.90
17483;DHT22;8858;52.308;20.994;2022-12-18T08:36:24;-3.60;99.90
17483;DHT22;8858;52.308;20.994;2022-12-18T08:38:54;-3.50;99.90
17483;DHT22;8858;52.308;20.994;2022-12-18T08:41:22;-3.30;99.90
17483;DHT22;8858;52.308;20.994;2022-12-18T08:43:52;-3.40;99.90
17483;DHT22;8858;52.308;20.994;2022-12-18T08:46:39;-3.40;99.90
17483;DHT22;8858;52.308;20.994;2022-12-18T08:49:11;-3.40;99.90
17483;DHT22;8858;52.308;20.994;2022-12-18T08:51:40;-3.30;99.90
17483;DHT22;8858;52.308;20.994;2022-12-18T08:54:11;-3.30;99.90
17483;DHT22;8858;52.308;20.994;2022-12-18T08:56:40;-3.30;99.90
17483;DHT22;8858;52.308;20.994;2022-12-18T08:59:08;-3.20;99.90
17483;DHT22;8858;52.308;20.994;2022-12-18T09:01:45;-3.20;99.90
17483;DHT22;8858;52.308;20.994;2022-12-18T09:04:15;-3.30;99.90
17483;DHT22;8858;52.308;20.994;2022-12-18T09:06:46;-3.40;99.90
17483;DHT22;8858;52.308;20.994;2022-12-18T09:09:16;-3.50;99.90
17483;DHT22;8858;52.308;20.994;2022-12-18T09:11:49;-3.50;99.90
17483;DHT22;8858;52.308;20.994;2022-12-18T09:14:20;-3.40;99.90
17483;DHT22;8858;52.308;20.994;2022-12-18T09:16:51;-3.50;99.90
17483;DHT22;8858;52.308;20.994;2022-12-18T09:19:19;-3.40;99.90
17483;DHT22;8858;52.308;20.994;2022-12-18T09:21:48;-3.40;99.90
17483;DHT22;8858;52.308;20.994;2022-12-18T09:24:18;-3.40;99.90
17483;DHT22;8858;52.308;20.994;2022-12-18T09:26:52;-3.40;99.90
17483;DHT22;8858;52.308;20.994;2022-12-18T09:29:23;-3.40;99.90
17483;DHT22;8858;52.308;20.994;2022-12-18T09:31:51;-3.40;99.90
17483;DHT22;8858;52.308;20.994;2022-12-18T09:34:20;-3.40;99.90
17483;DHT22;8858;52.308;20.994;2022-12-18T09:36:48;-3.40;99.90
17483;DHT22;8858;52.308;20.994;2022-12-18T09:39:25;-3.50;99.90
17483;DHT22;8858;52.308;20.994;2022-12-18T09:41:55;-3.50;99.90
17483;DHT22;8858;52.308;20.994;2022-12-18T09:44:32;-3.40;99.90
17483;DHT22;8858;52.308;20.994;2022-12-18T09:47:11;-3.30;99.90
17483;DHT22;8858;52.308;20.994;2022-12-18T09:49:42;-3.20;99.90
17483;DHT22;8858;52.308;20.994;2022-12-18T09:52:16;-3.20;99.90
17483;DHT22;8858;52.308;20.994;2022-12-18T09:54:51;-3.10;99.90
17483;DHT22;8858;52.308;20.994;2022-12-18T09:57:23;-3.00;99.90
17483;DHT22;8858;52.308;20.994;2022-12-18T09:59:55;-3.00;99.90
17483;DHT22;8858;52.308;20.994;2022-12-18T10:02:25;-3.00;99.90
17483;DHT22;8858;52.308;20.994;2022-12-18T10:05:06;-3.00;99.90
17483;DHT22;8858;52.308;20.994;2022-12-18T10:07:47;-3.00;99.90
17483;DHT22;8858;52.308;20.994;2022-12-18T10:10:26;-3.00;99.90
17483;DHT22;8858;52.308;20.994;2022-12-18T10:13:14;-3.10;99.90
17483;DHT22;8858;52.308;20.994;2022-12-18T10:15:54;-3.20;99.90
17483;DHT22;8858;52.308;20.994;2022-12-18T10:18:32;-3.20;99.90
17483;DHT22;8858;52.308;20.994;2022-12-18T10:21:11;-3.20;99.90
17483;DHT22;8858;52.308;20.994;2022-12-18T10:23:47;-3.30;99.90
17483;DHT22;8858;52.308;20.994;2022-12-18T10:26:21;-3.30;99.90
17483;DHT22;8858;52.308;20.994;2022-12-18T10:28:49;-3.30;99.90
17483;DHT22;8858;52.308;20.994;2022-12-18T10:31:23;-3.20;99.90
17483;DHT22;8858;52.308;20.994;2022-12-18T10:33:54;-3.10;99.90
17483;DHT22;8858;52.308;20.994;2022-12-18T10:36:24;-3.10;99.90
17483;DHT22;8858;52.308;20.994;2022-12-18T10:38:53;-3.00;99.90
17483;DHT22;8858;52.308;20.994;2022-12-18T10:41:26;-3.00;99.90
17483;DHT22;8858;52.308;20.994;2022-12-18T10:44:14;-3.00;99.90
17483;DHT22;8858;52.308;20.994;2022-12-18T10:46:49;-2.90;99.90
17483;DHT22;8858;52.308;20.994;2022-12-18T10:49:22;-2.80;99.90
17483;DHT22;8858;52.308;20.994;2022-12-18T10:52:05;-2.70;99.90
17483;DHT22;8858;52.308;20.994;2022-12-18T10:54:35;-2.50;99.90
17483;DHT22;8858;52.308;20.994;2022-12-18T10:57:16;-2.50;99.90
17483;DHT22;8858;52.308;20.994;2022-12-18T10:59:51;-2.50;99.90
17483;DHT22;8858;52.308;20.994;2022-12-18T11:02:28;-2.60;99.90
17483;DHT22;8858;52.308;20.994;2022-12-18T11:05:02;-2.50;99.90
17483;DHT22;8858;52.308;20.994;2022-12-18T11:07:48;-2.50;99.90
17483;DHT22;8858;52.308;20.994;2022-12-18T11:10:22;-2.50;99.90
17483;DHT22;8858;52.308;20.994;2022-12-18T11:12:52;-2.40;99.90
17483;DHT22;8858;52.308;20.994;2022-12-18T11:15:27;-2.40;99.90
17483;DHT22;8858;52.308;20.994;2022-12-18T11:17:57;-2.40;99.90
17483;DHT22;8858;52.308;20.994;2022-12-18T11:20:32;-2.40;99.90
17483;DHT22;8858;52.308;20.994;2022-12-18T11:23:05;-2.40;99.90
17483;DHT22;8858;52.308;20.994;2022-12-18T11:25:51;-2.40;99.90
17483;DHT22;8858;52.308;20.994;2022-12-18T11:28:34;-2.40;99.90
17483;DHT22;8858;52.308;20.994;2022-12-18T11:31:26;-2.30;99.90
17483;DHT22;8858;52.308;20.994;2022-12-18T11:34:02;-2.30;99.90
17483;DHT22;8858;52.308;20.994;2022-12-18T11:36:58;-2.30;99.90
17483;DHT22;8858;52.308;20.994;2022-12-18T11:39:33;-2.20;99.90
17483;DHT22;8858;52.308;20.994;2022-12-18T11:42:12;-2.20;99.90
17483;DHT22;8858;52.308;20.994;2022-12-18T11:44:49;-2.10;99.90
17483;DHT22;8858;52.308;20.994;2022-12-18T11:47:24;-2.10;99.90
17483;DHT22;8858;52.308;20.994;2022-12-18T11:49:55;-2.00;99.90
17483;DHT22;8858;52.308;20.994;2022-12-18T11:52:27;-2.00;99.90
17483;DHT22;8858;52.308;20.994;2022-12-18T11:55:00;-1.90;99.90
17483;DHT22;8858;52.308;20.994;2022-12-18T11:57:35;-2.00;99.90
17483;DHT22;8858;52.308;20.994;2022-12-18T12:00:13;-1.90;99.90
17483;DHT22;8858;52.308;20.994;2022-12-18T12:03:03;-1.90;99.90
17483;DHT22;8858;52.308;20.994;2022-12-18T12:05:50;-2.00;99.90
17483;DHT22;8858;52.308;20.994;2022-12-18T12:08:26;-2.10;99.90
17483;DHT22;8858;52.308;20.994;2022-12-18T12:11:02;-2.10;99.90
17483;DHT22;8858;52.308;20.994;2022-12-18T12:13:42;-2.20;99.90
17483;DHT22;8858;52.308;20.994;2022-12-18T12:16:22;-2.30;99.90
17483;DHT22;8858;52.308;20.994;2022-12-18T12:19:06;-2.20;99.90
17483;DHT22;8858;52.308;20.994;2022-12-18T12:21:41;-2.20;99.90
17483;DHT22;8858;52.308;20.994;2022-12-18T12:24:24;-2.10;99.90
17483;DHT22;8858;52.308;20.994;2022-12-18T12:27:04;-2.10;99.90
17483;DHT22;8858;52.308;20.994;2022-12-18T12:29:47;-2.00;99.90
17483;DHT22;8858;52.308;20.994;2022-12-18T12:32:28;-1.90;99.90
17483;DHT22;8858;52.308;20.994;2022-12-18T12:35:12;-1.90;99.90
17483;DHT22;8858;52.308;20.994;2022-12-18T12:37:48;-2.10;99.90
17483;DHT22;8858;52.308;20.994;2022-12-18T12:40:19;-2.10;99.90
17483;DHT22;8858;52.308;20.994;2022-12-18T12:43:20;-2.20;99.90
17483;DHT22;8858;52.308;20.994;2022-12-18T12:45:54;-2.20;99.90
17483;DHT22;8858;52.308;20.994;2022-12-18T12:48:41;-2.10;99.90
17483;DHT22;8858;52.308;20.994;2022-12-18T12:51:15;-2.00;99.90
17483;DHT22;8858;52.308;20.994;2022-12-18T12:53:46;-2.00;99.90
17483;DHT22;8858;52.308;20.994;2022-12-18T12:56:18;-1.90;99.90
17483;DHT22;8858;52.308;20.994;2022-12-18T12:58:57;-1.90;99.90
17483;DHT22;8858;52.308;20.994;2022-12-18T13:01:32;-1.80;99.90
17483;DHT22;8858;52.308;20.994;2022-12-18T13:04:12;-1.80;99.90
17483;DHT22;8858;52.308;20.994;2022-12-18T13:06:49;-1.80;99.90
17483;DHT22;8858;52.308;20.994;2022-12-18T13:09:19;-1.90;99.90
17483;DHT22;8858;52.308;20.994;2022-12-18T13:11:48;-1.90;99.90
17483;DHT22;8858;52.308;20.994;2022-12-18T13:14:35;-2.00;99.90
17483;DHT22;8858;52.308;20.994;2022-12-18T13:17:29;-1.90;99.90
17483;DHT22;8858;52.308;20.994;2022-12-18T13:20:10;-2.00;99.90
17483;DHT22;8858;52.308;20.994;2022-12-18T13:22:45;-2.10;99.90
17483;DHT22;8858;52.308;20.994;2022-12-18T13:25:34;-2.20;99.90
17483;DHT22;8858;52.308;20.994;2022-12-18T13:28:10;-2.30;99.90
17483;DHT22;8858;52.308;20.994;2022-12-18T13:30:58;-2.20;99.90
17483;DHT22;8858;52.308;20.994;2022-12-18T13:33:47;-2.30;99.90
17483;DHT22;8858;52.308;20.994;2022-12-18T13:36:38;-2.20;99.90
17483;DHT22;8858;52.308;20.994;2022-12-18T13:39:31;-2.20;99.90
17483;DHT22;8858;52.308;20.994;2022-12-18T13:42:39;-2.20;99.90
17483;DHT22;8858;52.308;20.994;2022-12-18T13:45:47;-2.20;99.90
17483;DHT22;8858;52.308;20.994;2022-12-18T13:48:23;-2.00;99.90
17483;DHT22;8858;52.308;20.994;2022-12-18T13:50:57;-2.00;99.90
17483;DHT22;8858;52.308;20.994;2022-12-18T13:53:31;-2.10;99.90
17483;DHT22;8858;52.308;20.994;2022-12-18T13:56:01;-2.20;99.90
17483;DHT22;8858;52.308;20.994;2022-12-18T13:58:30;-2.20;99.90
17483;DHT22;8858;52.308;20.994;2022-12-18T14:00:58;-2.30;99.90
17483;DHT22;8858;52.308;20.994;2022-12-18T14:03:29;-2.20;99.90
17483;DHT22;8858;52.308;20.994;2022-12-18T14:06:06;-2.30;99.90
17483;DHT22;8858;52.308;20.994;2022-12-18T14:08:39;-2.30;99.90
17483;DHT22;8858;52.308;20.994;2022-12-18T14:11:19;-2.30;99.90
17483;DHT22;8858;52.308;20.994;2022-12-18T14:13:48;-2.40;99.90
17483;DHT22;8858;52.308;20.994;2022-12-18T14:16:17;-2.40;99.90
17483;DHT22;8858;52.308;20.994;2022-12-18T14:18:48;-2.40;99.90
17483;DHT22;8858;52.308;20.994;2022-12-18T14:21:22;-2.40;99.90
17483;DHT22;8858;52.308;20.994;2022-12-18T14:24:05;-2.40;99.90
17483;DHT22;8858;52.308;20.994;2022-12-18T14:26:34;-2.40;99.90
17483;DHT22;8858;52.308;20.994;2022-12-18T14:29:20;-2.40;99.90
17483;DHT22;8858;52.308;20.994;2022-12-18T14:32:06;-2.40;99.90
17483;DHT22;8858;52.308;20.994;2022-12-18T14:34:46;-2.40;99.90
17483;DHT22;8858;52.308;20.994;2022-12-18T14:37:18;-2.40;99.90
17483;DHT22;8858;52.308;20.994;2022-12-18T14:39:57;-2.50;99.90
17483;DHT22;8858;52.308;20.994;2022-12-18T14:42:33;-2.50;99.90
17483;DHT22;8858;52.308;20.994;2022-12-18T14:45:35;-2.50;99.90
17483;DHT22;8858;52.308;20.994;2022-12-18T14:48:15;-2.60;99.90
17483;DHT22;8858;52.308;20.994;2022-12-18T14:50:57;-2.70;99.90
17483;DHT22;8858;52.308;20.994;2022-12-18T14:53:37;-2.80;99.90
17483;DHT22;8858;52.308;20.994;2022-12-18T14:56:20;-3.00;99.90
17483;DHT22;8858;52.308;20.994;2022-12-18T14:58:51;-3.00;99.90
17483;DHT22;8858;52.308;20.994;2022-12-18T15:01:24;-3.00;99.90
17483;DHT22;8858;52.308;20.994;2022-12-18T15:03:55;-3.00;99.90
17483;DHT22;8858;52.308;20.994;2022-12-18T15:06:31;-3.00;99.90
17483;DHT22;8858;52.308;20.994;2022-12-18T15:09:02;-3.00;99.90
17483;DHT22;8858;52.308;20.994;2022-12-18T15:11:45;-3.00;99.90
17483;DHT22;8858;52.308;20.994;2022-12-18T15:14:34;-3.00;99.90
17483;DHT22;8858;52.308;20.994;2022-12-18T15:17:05;-3.00;99.90
17483;DHT22;8858;52.308;20.994;2022-12-18T15:19:40;-3.10;99.90
17483;DHT22;8858;52.308;20.994;2022-12-18T15:22:21;-3.10;99.90
17483;DHT22;8858;52.308;20.994;2022-12-18T15:24:49;-3.00;99.90
17483;DHT22;8858;52.308;20.994;2022-12-18T15:27:30;-2.90;99.90
17483;DHT22;8858;52.308;20.994;2022-12-18T15:32:46;-3.00;99.90
17483;DHT22;8858;52.308;20.994;2022-12-18T15:35:17;-3.00;99.90
17483;DHT22;8858;52.308;20.994;2022-12-18T15:37:51;-3.10;99.90
17483;DHT22;8858;52.308;20.994;2022-12-18T15:40:22;-3.20;99.90
17483;DHT22;8858;52.308;20.994;2022-12-18T15:42:54;-3.20;99.90
17483;DHT22;8858;52.308;20.994;2022-12-18T15:45:41;-3.30;99.90
17483;DHT22;8858;52.308;20.994;2022-12-18T15:48:20;-3.20;99.90
17483;DHT22;8858;52.308;20.994;2022-12-18T15:50:49;-3.20;99.90
17483;DHT22;8858;52.308;20.994;2022-12-18T15:53:24;-3.20;99.90
17483;DHT22;8858;52.308;20.994;2022-12-18T15:55:54;-3.10;99.90
17483;DHT22;8858;52.308;20.994;2022-12-18T15:58:42;-3.10;99.90
17483;DHT22;8858;52.308;20.994;2022-12-18T16:01:25;-3.00;99.90
17483;DHT22;8858;52.308;20.994;2022-12-18T16:03:54;-3.00;99.90
17483;DHT22;8858;52.308;20.994;2022-12-18T16:06:23;-3.00;99.90
17483;DHT22;8858;52.308;20.994;2022-12-18T16:08:51;-3.00;99.90
17483;DHT22;8858;52.308;20.994;2022-12-18T16:11:22;-3.00;99.90
17483;DHT22;8858;52.308;20.994;2022-12-18T16:14:15;-2.90;99.90